Terminal Aerodrome Forecast
Issued by NWS Charleston, WV

Current Version | Previous Version | Text Only | Print | Product List | Glossary Off
Versions: 1 2 3 4 5 6 7 8 9 10 11 12 13 14 15 16 17 18 19 20 21 22 23 24 25

000
FTUS41 KRLX 271400 AAA
TAFBKW
TAF AMD
KBKW 271451Z 2715/2812 34011G17KT P6SM BKN015 OVC025
     FM271600 32012G18KT P6SM OVC025
     FM271800 32012G18KT P6SM OVC035
     FM280000 32008KT 5SM -SHSN OVC030
     FM280500 32007KT P6SM BKN040=

USA.gov is the U.S. government's official web portal to all federal, state and local government web resources and services.